Time;durP1;ratioP1;P1;durP2;ratioP2;P2;SDS_P1;SDS_P2;PMS_P1;PMS_P2;Temp;Humidity;BMP_temperature;BMP_pressure;BME280_temperature;BME280_humidity;BME280_pressure;Samples;Min_cycle;Max_cycle;Signal;HPM_P1;HPM_P2
2022/11/05 00:09:32;;;;;;;18.55;13.18;;;;;;;11.17;100.00;97953.41;5034505;28;20233;-55
2022/11/05 00:17:34;;;;;;;19.30;11.27;;;;;;;11.29;100.00;97952.47;5033780;28;20298;-55
2022/11/05 00:19:59;;;;;;;24.15;12.18;;;;;;;11.13;100.00;97946.81;5033871;28;20678;-55
2022/11/05 00:25:13;;;;;;;19.83;11.00;;;;;;;11.31;100.00;97937.59;5034107;28;20166;-55
2022/11/05 00:27:38;;;;;;;25.38;12.50;;;;;;;11.11;100.00;97930.59;5033675;28;20178;-56
2022/11/05 00:30:05;;;;;;;26.45;14.20;;;;;;;11.10;100.00;97931.53;5033249;28;20615;-55
2022/11/05 00:32:31;;;;;;;19.13;12.40;;;;;;;11.16;100.00;97931.88;5033367;28;20680;-56
2022/11/05 00:34:57;;;;;;;16.05;10.68;;;;;;;11.31;100.00;97932.44;5033187;28;20182;-56
2022/11/05 00:37:22;;;;;;;16.52;9.85;;;;;;;11.37;99.19;97931.97;5033344;28;20213;-55
2022/11/05 00:39:48;;;;;;;16.80;9.93;;;;;;;11.33;95.90;97933.97;5033207;28;20186;-55
2022/11/05 00:45:00;;;;;;;17.27;9.95;;;;;;;11.32;99.69;97931.50;5033018;28;20279;-55
2022/11/05 00:50:10;;;;;;;21.05;12.98;;;;;;;11.24;100.00;97931.28;5033461;28;20166;-56
2022/11/05 00:52:54;;;;;;;24.45;13.43;;;;;;;11.36;100.00;97932.91;5033273;28;20233;-56
2022/11/05 00:55:52;;;;;;;23.92;13.65;;;;;;;11.36;100.00;97931.13;5033123;28;20595;-56
2022/11/05 00:58:19;;;;;;;24.08;13.93;;;;;;;11.34;100.00;97929.63;4978807;28;20234;-56
2022/11/05 01:00:50;;;;;;;21.33;14.43;;;;;;;11.25;100.00;97925.16;5032884;28;20177;-55
2022/11/05 01:03:18;;;;;;;15.93;9.90;;;;;;;11.47;97.94;97927.69;5032846;28;20182;-56
2022/11/05 01:05:46;;;;;;;16.52;8.95;;;;;;;11.40;95.07;97931.72;5033036;28;20316;-56
2022/11/05 01:08:13;;;;;;;16.52;8.40;;;;;;;11.46;93.76;97926.06;5032920;28;20178;-56
2022/11/05 01:10:44;;;;;;;14.05;8.48;;;;;;;11.47;93.39;97927.69;5032537;28;20710;-56
2022/11/05 01:13:12;;;;;;;13.13;8.18;;;;;;;11.44;92.45;97922.78;5032601;28;20159;-55
2022/11/05 01:15:37;;;;;;;16.33;11.35;;;;;;;11.29;97.00;97916.19;5032597;28;20210;-56
2022/11/05 01:18:03;;;;;;;28.25;12.82;;;;;;;11.36;97.65;97938.06;5032356;28;20303;-56
2022/11/05 01:20:29;;;;;;;24.80;14.98;;;;;;;11.42;98.75;97927.22;5032025;28;20302;-56
2022/11/05 01:22:55;;;;;;;21.52;14.25;;;;;;;11.40;100.00;97923.94;5032775;28;20178;-56
2022/11/05 01:25:20;;;;;;;22.92;13.73;;;;;;;11.33;100.00;97909.84;5032388;28;20175;-56
2022/11/05 01:27:46;;;;;;;21.90;14.38;;;;;;;11.12;100.00;97919.28;5032341;28;20166;-56
2022/11/05 01:30:12;;;;;;;25.90;15.23;;;;;;;11.05;100.00;97910.38;5032277;28;20170;-56
2022/11/05 01:32:37;;;;;;;24.98;14.70;;;;;;;10.91;100.00;97889.94;5032536;28;20228;-56
2022/11/05 01:35:09;;;;;;;23.17;14.93;;;;;;;10.72;100.00;97900.03;5032289;28;20181;-56
2022/11/05 01:37:35;;;;;;;23.73;14.30;;;;;;;10.77;100.00;97898.75;5032148;28;20202;-56
2022/11/05 01:40:01;;;;;;;23.88;13.32;;;;;;;10.71;100.00;97883.72;5032091;28;20662;-56
2022/11/05 01:42:27;;;;;;;18.83;12.15;;;;;;;10.63;100.00;97885.22;5032082;28;20174;-56
2022/11/05 01:45:06;;;;;;;13.93;9.63;;;;;;;10.70;100.00;97886.41;5031875;28;20603;-56
2022/11/05 01:47:41;;;;;;;13.13;8.52;;;;;;;10.67;98.37;97884.03;5032292;28;20162;-56
2022/11/05 01:50:19;;;;;;;17.38;10.90;;;;;;;10.69;98.66;97866.66;5015034;28;20229;-56
2022/11/05 01:52:47;;;;;;;8.82;6.28;;;;;;;10.66;93.28;97872.03;5032312;28;20277;-55
2022/11/05 01:55:18;;;;;;;9.30;5.78;;;;;;;10.75;89.92;97855.81;5032058;28;20179;-56
2022/11/05 01:57:44;;;;;;;10.65;6.40;;;;;;;10.98;88.33;97870.38;5032099;28;20201;-56
2022/11/05 02:00:10;;;;;;;9.25;6.00;;;;;;;11.03;88.28;97868.25;5031752;28;20257;-56
2022/11/05 02:02:35;;;;;;;9.35;5.70;;;;;;;11.19;87.86;97863.47;5031849;28;20175;-55
2022/11/05 02:05:04;;;;;;;10.77;6.15;;;;;;;11.21;87.47;97877.97;5031921;28;20174;-56
2022/11/05 02:07:31;;;;;;;9.82;5.90;;;;;;;11.02;90.08;97843.28;5031840;28;20239;-55
2022/11/05 02:10:06;;;;;;;10.27;6.35;;;;;;;10.92;90.13;97868.28;5031998;28;20610;-56
2022/11/05 02:12:33;;;;;;;14.25;6.18;;;;;;;10.87;89.16;97854.88;5031676;28;20230;-56
2022/11/05 02:14:59;;;;;;;8.95;6.05;;;;;;;10.93;88.48;97854.38;5031927;28;20270;-55
2022/11/05 02:17:24;;;;;;;10.27;6.63;;;;;;;11.06;87.18;97842.09;5031625;28;20695;-55
2022/11/05 02:20:11;;;;;;;9.02;6.47;;;;;;;10.98;87.06;97844.50;5031666;28;20201;-56
2022/11/05 02:23:29;;;;;;;11.75;5.70;;;;;;;10.80;87.84;97856.28;5031801;28;20242;-55
2022/11/05 02:26:06;;;;;;;11.30;6.10;;;;;;;10.69;88.48;97848.53;5032463;28;20532;-55
2022/11/05 02:29:08;;;;;;;10.65;7.18;;;;;;;10.67;88.18;97840.06;5031629;28;20165;-55
2022/11/05 02:31:39;;;;;;;9.85;6.00;;;;;;;10.53;88.45;97838.56;5031604;28;20166;-56
2022/11/05 02:34:07;;;;;;;12.45;5.82;;;;;;;10.44;89.11;97839.25;5034667;28;20190;-55
2022/11/05 02:36:42;;;;;;;6.78;5.55;;;;;;;10.32;89.40;97829.84;5035748;28;20170;-55
2022/11/05 02:39:44;;;;;;;11.25;5.63;;;;;;;10.40;89.48;97839.63;5035698;28;20201;-55
2022/11/05 02:42:21;;;;;;;10.18;5.60;;;;;;;10.39;89.33;97840.56;5035418;28;20241;-55
2022/11/05 02:44:55;;;;;;;10.30;5.28;;;;;;;10.32;90.36;97849.72;5035349;28;20687;-56
2022/11/05 02:47:35;;;;;;;14.25;6.55;;;;;;;10.40;91.13;97848.19;5035631;28;20632;-55
2022/11/05 02:50:22;;;;;;;18.55;7.90;;;;;;;10.63;93.22;97855.00;5035358;28;20174;-56
2022/11/05 02:53:09;;;;;;;12.80;8.60;;;;;;;10.73;92.18;97848.16;5035684;28;20186;-56
2022/11/05 02:55:51;;;;;;;17.13;8.43;;;;;;;10.76;92.94;97850.53;5035394;28;20186;-56
2022/11/05 02:58:16;;;;;;;20.05;10.38;;;;;;;10.70;95.52;97847.59;5017685;28;20691;-56
2022/11/05 03:00:52;;;;;;;20.77;10.68;;;;;;;10.81;95.47;97861.31;5035230;28;20179;-56
2022/11/05 03:03:31;;;;;;;23.23;12.98;;;;;;;10.64;98.36;97859.25;5035130;28;20253;-56
2022/11/05 03:06:28;;;;;;;16.92;10.57;;;;;;;10.66;97.51;97848.75;5034979;28;20225;-56
2022/11/05 03:09:05;;;;;;;24.92;13.13;;;;;;;10.69;98.69;97859.69;4994323;28;20202;-56
2022/11/05 03:11:52;;;;;;;21.13;12.73;;;;;;;10.51;100.00;97860.31;5034949;28;20250;-56
2022/11/05 03:14:47;;;;;;;24.25;13.35;;;;;;;10.37;100.00;97857.94;5035066;28;20194;-56
2022/11/05 03:17:24;;;;;;;29.63;13.25;;;;;;;10.32;100.00;97865.22;5034760;28;20162;-56
2022/11/05 03:20:06;;;;;;;26.42;13.50;;;;;;;9.98;100.00;97822.97;5034724;28;20180;-56
2022/11/05 03:22:40;;;;;;;19.80;12.23;;;;;;;10.08;100.00;97867.09;5035223;28;20166;-56
2022/11/05 03:25:14;;;;;;;18.77;12.13;;;;;;;9.99;100.00;97860.00;5034768;28;20162;-56
2022/11/05 03:27:44;;;;;;;24.15;12.13;;;;;;;10.13;100.00;97860.63;5034855;28;20181;-56
2022/11/05 03:30:12;;;;;;;17.27;10.00;;;;;;;10.07;100.00;97860.25;5016860;28;20257;-56
2022/11/05 03:32:43;;;;;;;16.75;9.43;;;;;;;10.17;100.00;97861.22;5034793;28;20269;-56
2022/11/05 03:35:13;;;;;;;17.02;10.20;;;;;;;10.19;100.00;97854.16;5034761;28;20193;-56
2022/11/05 03:37:42;;;;;;;15.43;9.15;;;;;;;10.08;100.00;97843.81;5034439;28;20229;-56
2022/11/05 03:40:10;;;;;;;17.92;10.45;;;;;;;10.01;100.00;97861.53;5034386;28;20265;-56
2022/11/05 03:42:39;;;;;;;19.52;10.68;;;;;;;9.97;100.00;97861.84;5034270;28;20175;-56
2022/11/05 03:45:13;;;;;;;19.85;12.60;;;;;;;10.10;100.00;97853.09;5033628;28;20241;-56
2022/11/05 03:47:43;;;;;;;20.77;11.80;;;;;;;10.13;100.00;97859.81;5034434;28;20155;-56
2022/11/05 03:50:14;;;;;;;23.40;12.38;;;;;;;10.04;100.00;97855.34;5034205;28;20174;-56
2022/11/05 03:52:58;;;;;;;24.17;13.57;;;;;;;9.63;100.00;97818.81;5034261;28;20173;-56
2022/11/05 03:55:31;;;;;;;19.30;11.82;;;;;;;9.90;100.00;97852.91;5034443;28;20249;-56
2022/11/05 03:57:58;;;;;;;16.45;10.82;;;;;;;10.04;100.00;97842.41;5034374;28;20198;-56
2022/11/05 04:00:23;;;;;;;19.05;11.63;;;;;;;10.20;100.00;97846.31;5034394;28;20669;-56
2022/11/05 04:02:49;;;;;;;16.33;11.18;;;;;;;10.14;100.00;97841.59;5033961;28;20174;-56
2022/11/05 04:05:15;;;;;;;24.63;12.07;;;;;;;10.09;100.00;97842.91;5016196;28;20187;-56
2022/11/05 04:13:30;;;;;;;24.05;11.75;;;;;;;10.07;100.00;97855.09;4942767;29;20308;-56
2022/11/05 04:18:41;;;;;;;19.33;12.02;;;;;;;10.12;100.00;97850.41;5001018;28;20240;-56
2022/11/05 04:24:09;;;;;;;22.67;13.60;;;;;;;10.03;100.00;97843.31;5034249;28;20162;-56
2022/11/05 04:26:37;;;;;;;22.63;12.98;;;;;;;10.18;100.00;97852.53;5033866;28;20217;-56
2022/11/05 04:31:47;;;;;;;20.65;13.65;;;;;;;9.99;100.00;97858.22;5033776;28;20675;-56
2022/11/05 04:34:12;;;;;;;26.00;14.52;;;;;;;9.89;100.00;97859.03;5033425;28;20179;-56
2022/11/05 04:36:38;;;;;;;29.10;14.65;;;;;;;9.81;100.00;97857.00;4999241;28;20186;-56
2022/11/05 04:39:03;;;;;;;22.10;13.52;;;;;;;9.87;100.00;97866.09;5033151;28;20671;-56
2022/11/05 04:41:28;;;;;;;24.15;12.82;;;;;;;9.89;100.00;97871.94;5033262;28;20640;-56
2022/11/05 04:43:54;;;;;;;21.85;12.68;;;;;;;10.02;100.00;97870.94;5032926;28;20209;-56
2022/11/05 04:46:19;;;;;;;20.85;13.23;;;;;;;9.95;100.00;97876.66;5033274;28;20174;-56
2022/11/05 04:48:45;;;;;;;19.70;12.73;;;;;;;9.85;100.00;97879.09;5033122;28;20162;-56
2022/11/05 04:51:10;;;;;;;25.02;14.60;;;;;;;9.90;100.00;97876.19;5015647;28;20671;-56
2022/11/05 04:53:35;;;;;;;23.60;13.95;;;;;;;9.81;100.00;97876.88;5015642;28;20216;-56
2022/11/05 04:56:11;;;;;;;33.33;16.15;;;;;;;9.74;100.00;97885.97;5032163;28;20235;-56
2022/11/05 04:58:41;;;;;;;25.60;15.15;;;;;;;9.71;100.00;97886.22;5033198;28;20284;-56
2022/11/05 05:01:14;;;;;;;23.77;14.43;;;;;;;9.88;100.00;97889.19;5033694;28;20612;-56
2022/11/05 05:03:39;;;;;;;24.90;15.75;;;;;;;9.69;100.00;97880.34;5033067;28;20194;-56
2022/11/05 05:06:05;;;;;;;26.23;14.55;;;;;;;9.59;100.00;97892.28;5033219;28;20236;-56
2022/11/05 05:08:31;;;;;;;28.67;16.27;;;;;;;9.58;100.00;97894.03;5033057;28;20179;-56
2022/11/05 05:11:01;;;;;;;32.65;15.32;;;;;;;9.47;100.00;97880.28;5032807;28;20613;-56
2022/11/05 05:13:26;;;;;;;24.58;15.23;;;;;;;9.58;100.00;97893.22;5015196;28;20515;-56
2022/11/05 05:15:52;;;;;;;24.27;14.25;;;;;;;9.42;100.00;97897.84;5033069;28;20197;-56
2022/11/05 05:18:17;;;;;;;21.45;14.00;;;;;;;9.48;100.00;97907.72;5032480;28;20410;-56
2022/11/05 05:23:26;;;;;;;26.30;15.98;;;;;;;9.76;100.00;97912.56;5033006;28;20172;-56
2022/11/05 05:25:52;;;;;;;30.10;14.77;;;;;;;9.83;100.00;97919.75;5032444;28;20182;-56
2022/11/05 05:28:17;;;;;;;27.85;14.63;;;;;;;9.88;100.00;97924.56;5032282;28;20261;-56
2022/11/05 05:30:43;;;;;;;25.60;14.43;;;;;;;10.01;100.00;97933.91;5032459;28;20221;-56
2022/11/05 05:33:08;;;;;;;26.70;14.23;;;;;;;10.01;100.00;97933.06;5032490;28;20181;-56
2022/11/05 05:35:33;;;;;;;21.52;11.98;;;;;;;9.98;100.00;97928.13;5032230;28;20667;-56
2022/11/05 05:37:59;;;;;;;16.35;10.52;;;;;;;10.06;100.00;97925.81;5032512;28;20299;-56
2022/11/05 05:40:24;;;;;;;23.40;11.52;;;;;;;10.14;100.00;97928.66;5032161;28;20174;-56
2022/11/05 05:42:54;;;;;;;23.60;12.68;;;;;;;10.15;100.00;97938.88;5032352;28;20555;-56
2022/11/05 05:45:19;;;;;;;21.65;12.43;;;;;;;10.11;100.00;97936.66;5031830;28;20272;-56
2022/11/05 05:47:45;;;;;;;23.00;12.30;;;;;;;10.19;100.00;97942.91;5014637;28;20170;-56
2022/11/05 05:50:10;;;;;;;18.70;10.85;;;;;;;10.22;100.00;97937.50;5014326;28;20256;-56
2022/11/05 05:52:36;;;;;;;20.02;11.90;;;;;;;10.27;100.00;97937.16;5014789;28;20744;-56
2022/11/05 05:55:01;;;;;;;17.42;9.57;;;;;;;10.32;100.00;97941.03;5032369;28;20614;-56
2022/11/05 05:57:27;;;;;;;18.50;11.75;;;;;;;10.38;100.00;97950.09;5031790;28;20676;-56
2022/11/05 05:59:52;;;;;;;18.17;11.02;;;;;;;10.45;100.00;97953.88;5032025;28;20262;-56
2022/11/05 06:02:18;;;;;;;16.50;10.20;;;;;;;10.55;100.00;97954.81;5032103;28;20573;-56
2022/11/05 06:04:43;;;;;;;20.20;11.75;;;;;;;10.66;100.00;97952.25;5032020;28;20179;-56
2022/11/05 06:07:08;;;;;;;25.83;13.82;;;;;;;10.55;100.00;97944.47;5031818;28;20572;-56
2022/11/05 06:09:34;;;;;;;22.55;13.35;;;;;;;10.77;100.00;97960.03;5031783;28;20554;-56
2022/11/05 06:11:59;;;;;;;31.05;15.45;;;;;;;10.91;100.00;97960.63;5031639;28;20171;-56
2022/11/05 06:14:24;;;;;;;26.60;15.40;;;;;;;10.98;100.00;97959.19;5031679;28;20538;-56
2022/11/05 06:16:50;;;;;;;28.10;13.65;;;;;;;11.05;100.00;97959.56;5031551;28;20180;-56
2022/11/05 06:19:15;;;;;;;8.43;6.28;;;;;;;11.21;89.49;97960.00;5013675;28;20204;-56
2022/11/05 06:21:41;;;;;;;12.60;5.55;;;;;;;11.27;83.53;97964.72;5031542;28;20287;-56
2022/11/05 06:24:06;;;;;;;8.40;4.53;;;;;;;11.22;83.34;97965.09;5031666;28;20227;-56
2022/11/05 06:26:33;;;;;;;6.50;4.07;;;;;;;11.27;81.90;97968.09;5031703;28;20561;-56
2022/11/05 06:28:58;;;;;;;5.05;4.50;;;;;;;11.30;81.40;97956.69;5031668;28;20186;-56
2022/11/05 06:31:24;;;;;;;6.53;4.05;;;;;;;11.35;81.36;97962.34;5031501;28;20296;-56
2022/11/05 06:33:49;;;;;;;4.75;4.03;;;;;;;11.40;80.79;97965.38;5031821;28;20312;-56
2022/11/05 06:36:17;;;;;;;6.50;4.68;;;;;;;11.49;80.30;97965.47;5032068;28;20273;-56
2022/11/05 06:38:43;;;;;;;6.20;4.45;;;;;;;11.61;78.39;97971.50;5031490;28;20197;-56
2022/11/05 06:41:09;;;;;;;7.25;5.10;;;;;;;11.71;78.28;97980.16;5031859;28;20178;-56
2022/11/05 06:43:34;;;;;;;5.22;3.60;;;;;;;11.78;75.45;97966.59;5031602;28;20205;-56
2022/11/05 06:46:01;;;;;;;7.20;4.03;;;;;;;11.78;74.98;97950.25;5013779;28;20260;-55
2022/11/05 06:48:27;;;;;;;6.72;3.28;;;;;;;11.96;72.62;97969.50;5031680;28;20178;-55
2022/11/05 06:50:53;;;;;;;8.52;3.38;;;;;;;11.99;73.00;97964.88;5031408;28;20186;-55
2022/11/05 06:53:19;;;;;;;4.90;3.00;;;;;;;12.08;72.16;97974.50;5031634;28;20624;-56
2022/11/05 06:55:46;;;;;;;9.43;3.90;;;;;;;12.21;70.22;97969.16;5031317;28;20565;-55
2022/11/05 06:58:12;;;;;;;3.28;2.58;;;;;;;12.21;69.49;97961.38;5032025;28;20285;-55
2022/11/05 07:00:37;;;;;;;7.32;4.07;;;;;;;12.37;69.71;97969.53;5031070;28;20265;-55
2022/11/05 07:03:07;;;;;;;4.50;3.35;;;;;;;12.44;68.63;97975.84;5031286;28;20198;-56
2022/11/05 07:05:36;;;;;;;5.65;4.15;;;;;;;12.52;67.93;97963.06;5031587;28;20274;-56
2022/11/05 07:08:01;;;;;;;5.28;3.67;;;;;;;12.56;68.62;97977.44;5013520;28;20205;-56
2022/11/05 07:10:26;;;;;;;14.98;6.13;;;;;;;12.59;69.73;97970.22;5031272;28;20211;-56
2022/11/05 07:12:52;;;;;;;14.05;7.20;;;;;;;12.67;70.85;97972.16;5031243;28;20205;-56
2022/11/05 07:15:17;;;;;;;12.30;5.78;;;;;;;12.69;71.76;97960.72;5030787;28;20743;-56
2022/11/05 07:17:43;;;;;;;9.30;5.80;;;;;;;12.75;72.56;97954.16;5031058;28;20198;-56
2022/11/05 07:20:09;;;;;;;20.60;6.65;;;;;;;12.89;71.65;97964.22;5033318;28;20190;-56
2022/11/05 07:22:35;;;;;;;11.98;5.75;;;;;;;12.98;72.39;97973.84;5035060;28;20178;-56
2022/11/05 07:25:01;;;;;;;10.05;6.90;;;;;;;13.02;70.95;97973.44;5016939;28;20236;-56
2022/11/05 07:27:27;;;;;;;13.93;8.50;;;;;;;12.98;72.24;97964.28;5035035;28;20174;-56
2022/11/05 07:29:52;;;;;;;19.25;10.50;;;;;;;13.07;74.22;97960.09;5034639;28;20245;-56
2022/11/05 07:32:18;;;;;;;26.95;14.73;;;;;;;13.30;82.84;97962.34;5034482;28;20269;-56
2022/11/05 07:34:43;;;;;;;27.17;16.05;;;;;;;13.38;83.12;97959.09;5034485;28;20256;-56
2022/11/05 07:37:08;;;;;;;31.33;16.90;;;;;;;13.45;83.83;97944.59;5016619;28;20582;-56
2022/11/05 07:39:34;;;;;;;35.17;18.38;;;;;;;13.55;85.17;97945.44;5034691;28;20641;-55
2022/11/05 07:41:59;;;;;;;38.65;20.05;;;;;;;13.60;87.52;97943.25;5034703;28;20632;-56
2022/11/05 07:44:25;;;;;;;38.53;21.55;;;;;;;13.62;90.50;97941.34;5034231;28;20218;-56
2022/11/05 07:46:50;;;;;;;45.20;21.77;;;;;;;13.62;91.40;97936.13;5034317;28;20182;-56
2022/11/05 07:49:16;;;;;;;43.00;22.58;;;;;;;13.66;91.80;97934.91;5033845;28;20640;-56
2022/11/05 07:51:42;;;;;;;37.55;21.77;;;;;;;13.81;91.39;97925.75;5032895;28;20236;-55
2022/11/05 07:54:08;;;;;;;39.45;20.88;;;;;;;13.94;91.44;97926.31;5033977;28;20186;-56
2022/11/05 07:56:33;;;;;;;41.60;22.65;;;;;;;13.98;91.23;97920.69;5016052;28;20182;-55
2022/11/05 07:58:58;;;;;;;36.67;22.00;;;;;;;14.01;91.17;97896.19;5034024;28;20198;-54
2022/11/05 08:01:24;;;;;;;42.28;22.27;;;;;;;14.19;90.48;97920.56;5034476;28;20662;-55
2022/11/05 08:03:50;;;;;;;41.85;24.98;;;;;;;14.31;90.00;97916.84;5033989;28;20209;-55
2022/11/05 08:06:15;;;;;;;49.55;23.77;;;;;;;14.42;89.12;97914.91;5034120;28;20179;-55
2022/11/05 08:08:40;;;;;;;44.13;23.85;;;;;;;14.52;88.71;97917.50;5033794;28;20174;-55
2022/11/05 08:11:08;;;;;;;44.88;22.80;;;;;;;14.48;88.21;97887.50;5033874;28;20178;-55
2022/11/05 08:13:34;;;;;;;52.10;23.63;;;;;;;14.62;86.92;97921.69;5034009;28;20252;-55
2022/11/05 08:16:03;;;;;;;37.60;22.50;;;;;;;14.64;85.22;97921.56;5033694;28;20635;-56
2022/11/05 08:18:32;;;;;;;43.05;23.38;;;;;;;14.55;85.51;97917.19;5033596;28;20251;-55
2022/11/05 08:21:00;;;;;;;43.03;23.05;;;;;;;14.62;86.00;97928.69;5033094;28;20777;-55
2022/11/05 08:23:28;;;;;;;37.60;23.92;;;;;;;14.73;84.48;97923.31;5033920;28;20182;-55
2022/11/05 08:25:55;;;;;;;47.38;24.77;;;;;;;14.88;83.99;97934.91;5033655;28;20202;-55
2022/11/05 08:28:20;;;;;;;44.55;22.65;;;;;;;14.98;82.84;97930.50;5033504;28;20288;-56
2022/11/05 08:30:54;;;;;;;43.28;24.15;;;;;;;15.14;82.34;97925.47;5032470;28;20343;-56
2022/11/05 08:33:21;;;;;;;44.30;24.05;;;;;;;15.26;81.14;97932.94;5033444;28;20162;-56
2022/11/05 08:35:47;;;;;;;55.80;23.92;;;;;;;15.27;80.50;97931.16;5033517;28;20192;-56
2022/11/05 08:38:16;;;;;;;46.97;25.55;;;;;;;15.31;80.09;97937.72;5033551;28;20202;-56
2022/11/05 08:40:44;;;;;;;41.45;24.08;;;;;;;15.30;80.02;97917.84;5033148;28;20257;-56
2022/11/05 08:43:11;;;;;;;39.67;24.73;;;;;;;15.50;79.55;97927.19;5032961;28;20185;-56
2022/11/05 08:45:37;;;;;;;45.47;23.67;;;;;;;15.62;78.98;97929.47;5032439;28;20206;-56
2022/11/05 08:48:10;;;;;;;67.57;25.33;;;;;;;15.68;78.89;97930.66;5032098;28;20662;-56
2022/11/05 08:50:37;;;;;;;41.63;23.30;;;;;;;15.72;78.58;97927.59;5032469;28;20232;-56
2022/11/05 08:53:04;;;;;;;42.35;24.17;;;;;;;15.80;77.81;97924.25;5032430;28;20704;-56
2022/11/05 08:55:30;;;;;;;38.10;24.17;;;;;;;15.84;77.97;97917.75;5032347;28;20174;-56
2022/11/05 08:57:58;;;;;;;40.47;23.30;;;;;;;15.79;78.04;97917.38;5032296;28;20210;-56
2022/11/05 09:00:26;;;;;;;40.38;23.10;;;;;;;15.86;77.74;97923.66;5032093;28;20231;-56
2022/11/05 09:02:52;;;;;;;42.80;25.63;;;;;;;15.88;78.07;97922.56;5032582;28;20185;-56
2022/11/05 09:05:17;;;;;;;40.25;23.90;;;;;;;15.87;78.65;97920.09;5032267;28;20363;-56
2022/11/05 09:07:43;;;;;;;45.03;23.85;;;;;;;15.90;78.82;97915.38;5031284;28;20569;-56
2022/11/05 09:10:11;;;;;;;44.47;24.63;;;;;;;15.95;78.60;97914.91;5032067;28;20674;-56
2022/11/05 09:12:36;;;;;;;38.83;23.48;;;;;;;15.99;78.34;97918.88;5032154;28;20193;-56
2022/11/05 09:15:02;;;;;;;42.45;24.75;;;;;;;15.78;78.21;97910.53;5032005;28;20209;-56
2022/11/05 09:17:27;;;;;;;47.10;24.98;;;;;;;15.88;78.18;97903.44;5031682;28;20565;-56
2022/11/05 09:19:53;;;;;;;42.00;23.35;;;;;;;15.95;77.21;97912.31;5032005;28;20196;-56
2022/11/05 09:22:18;;;;;;;41.30;23.45;;;;;;;16.07;76.86;97911.09;5031974;28;20185;-56
2022/11/05 09:24:44;;;;;;;37.05;23.65;;;;;;;16.12;77.51;97906.25;5031731;28;20718;-56
2022/11/05 09:27:12;;;;;;;45.10;22.65;;;;;;;16.18;77.23;97909.09;5031747;28;20177;-56
2022/11/05 09:29:38;;;;;;;38.83;23.67;;;;;;;16.17;77.29;97910.06;5031810;28;20663;-56
2022/11/05 09:32:04;;;;;;;41.92;22.67;;;;;;;16.23;77.52;97896.41;5031839;28;20209;-56
2022/11/05 09:34:29;;;;;;;39.65;23.40;;;;;;;16.30;77.44;97907.88;5031616;28;20643;-56
2022/11/05 09:36:56;;;;;;;44.60;24.98;;;;;;;16.36;77.03;97906.44;5031393;28;20177;-56
2022/11/05 09:39:21;;;;;;;38.92;22.77;;;;;;;16.48;76.47;97905.22;5031281;28;20186;-56
2022/11/05 09:41:50;;;;;;;39.10;22.48;;;;;;;16.56;75.61;97897.47;5030983;28;20197;-56
2022/11/05 09:44:46;;;;;;;45.05;23.75;;;;;;;16.67;75.25;97900.63;4992432;28;1124752;-57
2022/11/05 09:47:18;;;;;;;34.58;22.85;;;;;;;16.70;75.42;97897.72;5014486;28;20559;-57
2022/11/05 09:49:48;;;;;;;37.00;23.35;;;;;;;16.78;74.44;97891.69;5032386;28;20155;-56
2022/11/05 09:52:19;;;;;;;39.22;24.30;;;;;;;16.82;74.59;97899.09;5032349;28;20544;-57
2022/11/05 09:54:47;;;;;;;35.80;24.48;;;;;;;16.72;75.29;97884.47;5032266;28;20624;-57
2022/11/05 09:57:17;;;;;;;35.95;22.70;;;;;;;16.80;74.95;97884.53;5032017;28;20682;-57
2022/11/05 09:59:49;;;;;;;37.30;22.85;;;;;;;16.90;74.89;97880.00;5032332;28;20556;-56
2022/11/05 10:02:22;;;;;;;47.20;24.38;;;;;;;16.89;75.02;97873.13;5032129;28;20582;-57
2022/11/05 10:04:51;;;;;;;41.92;24.35;;;;;;;17.01;74.90;97877.09;5032371;28;20185;-57
2022/11/05 10:07:21;;;;;;;36.38;22.95;;;;;;;17.03;74.67;97859.47;5031800;28;20228;-56
2022/11/05 10:09:58;;;;;;;39.10;23.15;;;;;;;17.12;73.56;97854.09;5032168;28;20640;-54
2022/11/05 10:12:30;;;;;;;37.67;24.00;;;;;;;17.15;73.52;97858.19;5032261;28;20166;-56
2022/11/05 10:14:58;;;;;;;40.85;23.75;;;;;;;17.24;73.78;97863.28;5032061;28;20170;-55
2022/11/05 10:17:26;;;;;;;38.20;22.83;;;;;;;17.31;73.61;97858.25;5031653;28;20181;-56
2022/11/05 10:20:13;;;;;;;37.05;22.42;;;;;;;17.39;73.10;97856.50;5031964;28;20264;-57
2022/11/05 10:22:39;;;;;;;40.70;25.13;;;;;;;17.45;72.81;97853.25;5031635;28;20200;-56
2022/11/05 10:25:17;;;;;;;37.45;23.85;;;;;;;17.53;72.88;97857.66;5032010;28;20189;-57
2022/11/05 10:27:49;;;;;;;39.75;23.20;;;;;;;17.62;72.26;97835.75;5031956;28;20166;-56
2022/11/05 10:30:14;;;;;;;38.40;23.15;;;;;;;17.79;71.65;97843.44;5032308;28;20166;-56
2022/11/05 10:32:42;;;;;;;40.53;22.20;;;;;;;17.91;71.56;97841.34;5031831;28;20181;-57
2022/11/05 10:35:13;;;;;;;41.00;23.50;;;;;;;18.02;70.97;97843.63;5032357;28;20205;-56
2022/11/05 10:37:40;;;;;;;33.50;23.17;;;;;;;18.03;70.28;97840.00;5031815;28;20298;-57
2022/11/05 10:40:35;;;;;;;49.58;23.55;;;;;;;18.09;69.99;97831.50;5031841;28;20623;-56
2022/11/05 10:43:09;;;;;;;38.88;23.02;;;;;;;18.18;70.17;97827.91;4996485;28;20247;-56
2022/11/05 10:46:10;;;;;;;40.92;23.05;;;;;;;18.36;68.55;97841.63;5031509;28;20232;-56
2022/11/05 10:48:47;;;;;;;30.52;20.77;;;;;;;18.42;68.33;97827.88;5031822;28;20162;-56
2022/11/05 10:51:13;;;;;;;36.75;21.38;;;;;;;18.51;68.12;97825.06;5031763;28;20219;-54
2022/11/05 10:53:46;;;;;;;35.38;21.25;;;;;;;18.43;67.33;97837.38;5031824;28;20614;-55
2022/11/05 10:56:31;;;;;;;38.00;22.00;;;;;;;18.45;67.31;97827.53;5035371;28;20220;-56
2022/11/05 10:58:58;;;;;;;37.47;21.33;;;;;;;18.60;66.79;97831.09;5035353;28;20224;-56
2022/11/05 11:01:25;;;;;;;35.33;20.42;;;;;;;18.64;66.53;97835.81;5035181;28;20269;-55
2022/11/05 11:04:04;;;;;;;31.52;20.10;;;;;;;18.53;66.61;97811.81;5035359;28;20288;-55
2022/11/05 11:06:36;;;;;;;35.38;22.35;;;;;;;18.64;66.42;97803.53;5035199;28;20180;-56
2022/11/05 11:09:16;;;;;;;35.05;21.45;;;;;;;18.76;66.74;97817.94;5035732;28;20158;-57
2022/11/05 11:11:41;;;;;;;37.58;21.30;;;;;;;18.86;66.06;97819.34;5035359;28;20173;-57
2022/11/05 11:14:13;;;;;;;33.55;20.50;;;;;;;18.97;65.44;97805.03;5035244;28;20174;-55
2022/11/05 11:16:40;;;;;;;31.83;21.25;;;;;;;19.05;65.41;97808.44;5035152;28;20208;-55
2022/11/05 11:19:29;;;;;;;36.25;21.13;;;;;;;18.88;64.76;97801.63;5034926;28;20214;-56
2022/11/05 11:22:04;;;;;;;33.20;20.50;;;;;;;18.92;64.87;97809.97;5034895;28;20177;-56
2022/11/05 11:24:36;;;;;;;37.65;21.00;;;;;;;18.82;65.25;97765.63;5034997;28;20228;-56
2022/11/05 11:27:04;;;;;;;35.65;21.55;;;;;;;19.11;64.62;97802.50;5034989;28;20201;-56
2022/11/05 11:29:34;;;;;;;33.78;21.23;;;;;;;19.18;64.69;97792.16;5035054;28;20543;-57
2022/11/05 11:32:01;;;;;;;33.03;21.40;;;;;;;19.14;64.68;97807.41;5034872;28;20176;-56
2022/11/05 11:34:30;;;;;;;32.40;20.13;;;;;;;19.23;64.59;97810.84;5034653;28;20622;-56
2022/11/05 11:37:07;;;;;;;27.70;19.60;;;;;;;19.25;64.44;97799.19;5017269;28;20202;-56
2022/11/05 11:39:33;;;;;;;40.10;20.33;;;;;;;19.30;64.12;97788.16;5034726;28;20216;-55
2022/11/05 11:42:18;;;;;;;33.20;19.73;;;;;;;19.19;64.30;97793.78;5034483;28;20181;-56
2022/11/05 11:44:45;;;;;;;37.70;20.23;;;;;;;19.14;64.27;97790.84;5034289;28;20209;-56
2022/11/05 11:47:14;;;;;;;39.53;21.77;;;;;;;19.14;64.84;97790.84;5034073;28;20178;-56
2022/11/05 11:49:45;;;;;;;34.08;21.75;;;;;;;19.05;64.84;97786.66;5033071;28;20178;-55
2022/11/05 11:52:24;;;;;;;31.92;21.58;;;;;;;19.03;64.93;97801.72;5034643;28;20241;-56
2022/11/05 11:54:51;;;;;;;34.22;21.60;;;;;;;18.93;65.13;97788.84;5016503;28;20170;-56
2022/11/05 11:57:27;;;;;;;39.13;22.23;;;;;;;18.84;65.77;97773.31;5033250;28;20178;-56
2022/11/05 11:59:55;;;;;;;35.42;20.48;;;;;;;18.86;66.08;97782.66;5034138;28;20189;-56
2022/11/05 12:02:41;;;;;;;33.28;20.30;;;;;;;18.83;65.71;97790.06;5034056;28;20183;-56
2022/11/05 12:05:09;;;;;;;31.92;20.30;;;;;;;18.77;66.34;97782.88;5034081;28;20165;-55
2022/11/05 12:07:56;;;;;;;33.08;21.60;;;;;;;18.49;66.63;97735.31;5034059;28;20180;-56